KLOR/LOR METAR and TAF weather

Enter ICAO airport designator
Station Type Date Time Source
KLOR METAR 2019/04/20 18:30 UTC NOAA

KLOR 201830Z AUTO 28012G21KT 10SM CLR 20/00 A2987 RMK AO2 WSHFT 23 SLP098


Station Type Date Time Source
KLOR Decoded METAR 2019/04/20 18:30 UTC NOAA

Fort Rucker, Lowe Army Heliport, AL, United States (KLOR) 31-21-32N 085-44-54W 93M
Apr 20, 2019 - 02:30 PM EDT / 2019.04.20 1830 UTC
Wind: from the W (280 degrees) at 14 MPH (12 KT) gusting to 24 MPH (21 KT):0
Visibility: 10 mile(s):0
Sky conditions: clear
Temperature: 68 F (20 C)
Dew Point: 32 F (0 C)
Relative Humidity: 26%
Pressure (altimeter): 29.87 in. Hg (1011 hPa)
ob: KLOR 201830Z AUTO 28012G21KT 10SM CLR 20/00 A2987 RMK AO2 WSHFT 23 SLP098
cycle: 18

Station Type Date Time Source
KLOR TAF UTC NOAA

Error!

Example: see airport list